createdAt,value
2019-05-14T00:00:43.827Z,82.26
2019-05-14T00:01:44.721Z,83.01
2019-05-14T00:02:43.787Z,83.11
2019-05-14T00:03:43.765Z,84.06
2019-05-14T00:04:44.883Z,83.59
2019-05-14T00:05:44.763Z,84.53
2019-05-14T00:06:44.257Z,84.63
2019-05-14T00:07:43.892Z,84.63
2019-05-14T00:08:44.317Z,85.01
2019-05-14T00:09:43.924Z,84.91
2019-05-14T00:10:43.623Z,85.11
2019-05-14T00:11:44.557Z,84.82
2019-05-14T00:12:44.316Z,85.01
2019-05-14T00:13:43.710Z,85.01
2019-05-14T00:14:46.183Z,84.72
2019-05-14T00:15:43.889Z,85.06
2019-05-14T00:16:44.606Z,85.49
2019-05-14T00:17:44.127Z,85.39
2019-05-14T00:18:44.452Z,85.82
2019-05-14T00:19:43.949Z,85.91
2019-05-14T00:20:44.381Z,86.01
2019-05-14T00:21:44.689Z,86.11
2019-05-14T00:22:44.158Z,86.2
2019-05-14T00:23:44.495Z,86.87
2019-05-14T00:24:44.154Z,86.77
2019-05-14T00:25:44.316Z,87.15
2019-05-14T00:26:44.759Z,87.19
2019-05-14T00:27:43.640Z,87.24
2019-05-14T00:28:44.553Z,87.29
2019-05-14T00:29:44.030Z,86.82
2019-05-14T00:30:44.558Z,86.82
2019-05-14T00:31:44.812Z,87.01
2019-05-14T00:32:43.957Z,87.19
2019-05-14T00:33:44.378Z,87.1
2019-05-14T00:34:44.835Z,87.1
2019-05-14T00:35:43.808Z,87.29
2019-05-14T00:36:44.150Z,87.38
2019-05-14T00:37:43.916Z,87.1
2019-05-14T00:38:44.457Z,86.63
2019-05-14T00:39:44.085Z,87.1
2019-05-14T00:40:44.432Z,87.57
2019-05-14T00:41:44.527Z,87.01
2019-05-14T00:42:43.918Z,87.1
2019-05-14T00:43:44.047Z,87.29
2019-05-14T00:44:57.979Z,87.1
2019-05-14T00:45:44.232Z,87.48
2019-05-14T00:46:43.538Z,87.67
2019-05-14T00:47:44.282Z,87.67
2019-05-14T00:48:44.521Z,87.29
2019-05-14T00:49:44.724Z,87.72
2019-05-14T00:50:44.464Z,87.72
2019-05-14T00:51:43.744Z,87.72
2019-05-14T00:52:46.350Z,87.86
2019-05-14T00:53:44.405Z,87.86
2019-05-14T00:54:44.174Z,88.01
2019-05-14T00:55:44.391Z,87.95
2019-05-14T00:56:44.162Z,87.95
2019-05-14T00:57:44.837Z,88.15
2019-05-14T00:58:43.914Z,88.34
2019-05-14T00:59:43.804Z,88.43
2019-05-14T01:00:44.244Z,88.15
2019-05-14T01:01:42.585Z,88.24
2019-05-14T01:02:44.078Z,88.2
2019-05-14T01:03:43.962Z,88.39
2019-05-14T01:04:45.236Z,88.57
2019-05-14T01:05:43.825Z,88.39
2019-05-14T01:06:44.409Z,88.39
2019-05-14T01:07:42.382Z,88.39
2019-05-14T01:08:43.841Z,88.76
2019-05-14T01:09:44.343Z,88.57
2019-05-14T01:10:44.092Z,88.2
2019-05-14T01:11:44.331Z,88.76
2019-05-14T01:12:43.871Z,88.86
2019-05-14T01:13:43.892Z,88.57
2019-05-14T01:14:42.507Z,88.76
2019-05-14T01:15:43.950Z,88.67
2019-05-14T01:16:42.389Z,88.95
2019-05-14T01:17:42.229Z,89.05
2019-05-14T01:18:43.897Z,89.33
2019-05-14T01:19:44.803Z,88.95
2019-05-14T01:20:43.683Z,89.05
2019-05-14T01:21:44.110Z,89.24
2019-05-14T01:22:42.319Z,88.95
2019-05-14T01:23:43.859Z,88.95
2019-05-14T01:24:43.995Z,89.24
2019-05-14T01:25:42.156Z,89.53
2019-05-14T01:26:43.943Z,89.81
2019-05-14T01:27:43.832Z,89.14
2019-05-14T01:28:43.925Z,89.9
2019-05-14T01:29:42.391Z,90
2019-05-14T01:30:43.555Z,89.43
2019-05-14T01:31:44.045Z,89.62
2019-05-14T01:32:44.355Z,89.81
2019-05-14T01:33:43.234Z,89.9
2019-05-14T01:34:44.246Z,89.62
2019-05-14T01:35:42.075Z,90.09
2019-05-14T01:36:43.688Z,90.47
2019-05-14T01:37:43.924Z,90.19
2019-05-14T01:38:42.066Z,90.28
2019-05-14T01:39:44.081Z,90.47
2019-05-14T01:40:44.237Z,90.19
2019-05-14T01:41:42.239Z,90.28
2019-05-14T01:42:43.878Z,90.85
2019-05-14T01:43:42.004Z,90.57
2019-05-14T01:44:43.692Z,90.76
2019-05-14T01:45:44.021Z,90.19
2019-05-14T01:46:41.972Z,90.85
2019-05-14T01:47:43.769Z,90.57
2019-05-14T01:48:41.800Z,90.24
2019-05-14T01:49:42.713Z,90.57
2019-05-14T01:50:43.766Z,90.33
2019-05-14T01:51:42.295Z,91.04
2019-05-14T01:52:43.817Z,91.14
2019-05-14T01:53:41.750Z,91.14
2019-05-14T01:54:42.628Z,90.76
2019-05-14T01:55:43.554Z,90.76
2019-05-14T01:56:42.242Z,91.24
2019-05-14T01:57:42.426Z,91
2019-05-14T01:58:41.776Z,91.14
2019-05-14T01:59:42.814Z,91.56
2019-05-14T02:00:41.594Z,91.33
2019-05-14T02:01:43.574Z,90.71
2019-05-14T02:02:41.845Z,90.9
2019-05-14T02:03:43.436Z,91.47
2019-05-14T02:04:42.643Z,91.66
2019-05-14T02:05:41.657Z,91.85
2019-05-14T02:06:43.559Z,91.66
2019-05-14T02:07:41.975Z,91.56
2019-05-14T02:08:43.745Z,91.66
2019-05-14T02:09:41.939Z,92.33
2019-05-14T02:10:41.924Z,92.14
2019-05-14T02:11:41.641Z,91.56
2019-05-14T02:12:42.295Z,91.56
2019-05-14T02:13:41.451Z,91.75
2019-05-14T02:14:42.340Z,91.47
2019-05-14T02:15:44.760Z,92.52
2019-05-14T02:16:42.182Z,92.33
2019-05-14T02:17:43.704Z,92.04
2019-05-14T02:18:41.575Z,92.8
2019-05-14T02:19:42.472Z,93.08
2019-05-14T02:20:41.425Z,93.18
2019-05-14T02:21:42.471Z,93.46
2019-05-14T02:22:41.623Z,93.37
2019-05-14T02:23:41.995Z,92.9
2019-05-14T02:24:41.671Z,93.37
2019-05-14T02:25:41.324Z,93.46
2019-05-14T02:26:42.384Z,93.27
2019-05-14T02:27:41.338Z,93.65
2019-05-14T02:28:41.998Z,93.75
2019-05-14T02:29:41.566Z,93.94
2019-05-14T02:30:58.719Z,93.65
2019-05-14T02:31:41.774Z,93.84
2019-05-14T02:32:43.053Z,94.42
2019-05-14T02:33:42.230Z,93.84
2019-05-14T02:34:42.439Z,94.23
2019-05-14T02:35:42.266Z,94.42
2019-05-14T02:36:42.473Z,94.13
2019-05-14T02:37:42.667Z,94.6
2019-05-14T02:38:41.395Z,94.42
2019-05-14T02:39:43.602Z,94.23
2019-05-14T02:40:42.911Z,94.13
2019-05-14T02:41:41.822Z,94.51
2019-05-14T02:42:42.502Z,94.13
2019-05-14T02:43:43.515Z,94.51
2019-05-14T02:44:43.385Z,94.51
2019-05-14T02:46:05.787Z,94.42
2019-05-14T02:46:43.093Z,94.42
2019-05-14T02:47:42.276Z,93.84
2019-05-14T02:48:42.752Z,94.51
2019-05-14T02:49:42.094Z,94.32
2019-05-14T02:50:42.074Z,95.36
2019-05-14T02:51:41.655Z,94.23
2019-05-14T02:52:42.855Z,94.51
2019-05-14T02:53:41.614Z,94.51
2019-05-14T02:54:42.939Z,94.42
2019-05-14T02:55:41.496Z,94.79
2019-05-14T02:56:42.766Z,95.17
2019-05-14T02:57:41.912Z,95.07
2019-05-14T02:58:42.628Z,94.42
2019-05-14T02:59:41.913Z,94.42
2019-05-14T03:00:43.228Z,94.7
2019-05-14T03:01:43.098Z,94.6
2019-05-14T03:02:42.856Z,94.03
2019-05-14T03:03:42.686Z,94.51
2019-05-14T03:04:42.050Z,95.17
2019-05-14T03:05:42.602Z,95.07
2019-05-14T03:06:41.755Z,95.17
2019-05-14T03:07:41.932Z,95.27
2019-05-14T03:08:41.491Z,95.27
2019-05-14T03:09:42.768Z,94.7
2019-05-14T03:10:42.709Z,94.89
2019-05-14T03:11:43.051Z,95.07
2019-05-14T03:12:42.177Z,95.17
2019-05-14T03:13:42.553Z,95.55
2019-05-14T03:14:42.178Z,95.27
2019-05-14T03:15:41.648Z,95.46
2019-05-14T03:16:42.902Z,95.84
2019-05-14T03:17:43.009Z,95.65
2019-05-14T03:18:42.152Z,95.46
2019-05-14T03:19:43.404Z,95.93
2019-05-14T03:20:41.557Z,95.6
2019-05-14T03:21:42.047Z,95.6
2019-05-14T03:23:01.663Z,95.79
2019-05-14T03:23:41.837Z,95.6
2019-05-14T03:24:42.187Z,95.79
2019-05-14T03:25:42.455Z,95.93
2019-05-14T03:26:42.354Z,96.08
2019-05-14T03:27:43.041Z,96.26
2019-05-14T03:28:42.414Z,95.79
2019-05-14T03:29:42.539Z,96.26
2019-05-14T03:30:45.025Z,96.26
2019-05-14T03:31:45.572Z,96.08
2019-05-14T03:32:45.113Z,95.89
2019-05-14T03:33:51.658Z,96.26
2019-05-14T03:34:45.842Z,95.79
2019-05-14T03:35:58.426Z,96.03
2019-05-14T03:36:45.329Z,95.65
2019-05-14T03:37:41.588Z,96.08
2019-05-14T03:38:42.167Z,97.22
2019-05-14T03:39:42.141Z,97.02
2019-05-14T03:40:42.506Z,96.26
2019-05-14T03:41:42.214Z,97.12
2019-05-14T03:42:42.395Z,96.55
2019-05-14T03:43:41.629Z,96.83
2019-05-14T03:44:42.506Z,96.83
2019-05-14T03:45:41.607Z,96.64
2019-05-14T03:46:55.392Z,97.12
2019-05-14T03:47:41.915Z,97.02
2019-05-14T03:48:42.542Z,97.02
2019-05-14T03:49:42.230Z,96.36
2019-05-14T03:50:41.351Z,97.12
2019-05-14T03:51:41.899Z,97.02
2019-05-14T03:52:42.442Z,96.26
2019-05-14T03:54:05.791Z,96.17
2019-05-14T03:54:42.941Z,96.41
2019-05-14T03:55:42.854Z,96.22
2019-05-14T03:56:41.876Z,95.94
2019-05-14T03:57:42.485Z,95.27
2019-05-14T03:58:41.820Z,94.6
2019-05-14T03:59:42.990Z,93.32
2019-05-14T04:00:41.526Z,92.66
2019-05-14T04:01:42.677Z,92.18
2019-05-14T04:02:41.602Z,92.03
2019-05-14T04:03:42.344Z,91.75
2019-05-14T04:04:41.838Z,91.75
2019-05-14T04:05:42.631Z,90.99
2019-05-14T04:06:42.789Z,89.7
2019-05-14T04:07:41.872Z,88.56
2019-05-14T04:08:41.689Z,88.23
2019-05-14T04:09:42.509Z,88.18
2019-05-14T04:10:52.790Z,88.99
2019-05-14T04:11:42.260Z,87.46
2019-05-14T04:12:42.818Z,87.27
2019-05-14T04:13:42.847Z,86.08
2019-05-14T04:14:42.299Z,85.51
2019-05-14T04:15:41.635Z,85.6
2019-05-14T04:16:59.751Z,84.79
2019-05-14T04:17:44.292Z,83.55
2019-05-14T04:18:42.972Z,82.79
2019-05-14T04:19:41.930Z,82.98
2019-05-14T04:20:41.706Z,82.41
2019-05-14T04:21:42.476Z,81.68
2019-05-14T04:22:41.825Z,81.59
2019-05-14T04:23:42.196Z,80.73
2019-05-14T04:24:43.396Z,80.2
2019-05-14T04:25:41.440Z,79.91
2019-05-14T04:27:07.059Z,79.82
2019-05-14T04:27:42.509Z,79.25
2019-05-14T04:28:41.753Z,78.67
2019-05-14T04:29:42.137Z,77.82
2019-05-14T04:30:59.350Z,77.28
2019-05-14T04:31:41.555Z,77
2019-05-14T04:32:41.977Z,77.19
2019-05-14T04:33:41.788Z,77.25
2019-05-14T04:34:42.283Z,77.44
2019-05-14T04:35:42.563Z,78.01
2019-05-14T04:36:41.689Z,77.53
2019-05-14T04:37:42.469Z,77.38
2019-05-14T04:38:43.124Z,76.23
2019-05-14T04:39:42.111Z,75.47
2019-05-14T04:40:42.371Z,74.46
2019-05-14T04:41:41.877Z,73.5
2019-05-14T04:42:42.719Z,73.6
2019-05-14T04:43:42.702Z,73.32
2019-05-14T04:44:42.658Z,73.41
2019-05-14T04:45:42.022Z,73.5
2019-05-14T04:46:41.946Z,73.47
2019-05-14T04:47:44.192Z,73.28
2019-05-14T04:48:45.385Z,73.41
2019-05-14T04:49:42.446Z,73.88
2019-05-14T04:50:42.813Z,73.12
2019-05-14T04:51:42.212Z,72.17
2019-05-14T04:52:42.821Z,73.03
2019-05-14T04:53:41.864Z,73.03
2019-05-14T04:54:41.867Z,72.45
2019-05-14T04:55:42.410Z,70.67
2019-05-14T04:56:42.512Z,69.72
2019-05-14T04:57:41.758Z,70.1
2019-05-14T04:58:43.229Z,69.72
2019-05-14T04:59:42.217Z,70.1
2019-05-14T05:00:41.672Z,70.2
2019-05-14T05:01:42.452Z,70.2
2019-05-14T05:02:42.210Z,70.01
2019-05-14T05:03:42.603Z,69.82
2019-05-14T05:04:43.396Z,70.1
2019-05-14T05:05:41.862Z,70.1
2019-05-14T05:06:42.121Z,71.06
2019-05-14T05:07:42.526Z,71.06
2019-05-14T05:08:41.997Z,70.87
2019-05-14T05:09:42.453Z,70.58
2019-05-14T05:10:42.226Z,70.29
2019-05-14T05:11:41.970Z,70.67
2019-05-14T05:12:41.258Z,70.39
2019-05-14T05:13:42.234Z,70.87
2019-05-14T05:14:41.424Z,70.96
2019-05-14T05:15:41.928Z,71.31
2019-05-14T05:16:41.636Z,71.34
2019-05-14T05:17:52.757Z,70.96
2019-05-14T05:18:42.318Z,70.29
2019-05-14T05:19:45.575Z,70.2
2019-05-14T05:20:41.865Z,69.91
2019-05-14T05:21:41.215Z,69.66
2019-05-14T05:22:41.977Z,68.99
2019-05-14T05:23:41.217Z,68.8
2019-05-14T05:24:40.559Z,68.7
2019-05-14T05:25:40.882Z,68.99
2019-05-14T05:26:41.335Z,68.26
2019-05-14T05:27:40.666Z,68.16
2019-05-14T05:28:41.642Z,68.16
2019-05-14T05:29:41.553Z,67.97
2019-05-14T05:30:41.032Z,66.73
2019-05-14T05:31:40.645Z,67.11
2019-05-14T05:32:41.417Z,67.02
2019-05-14T05:33:40.781Z,67.88
2019-05-14T05:34:41.018Z,68.16
2019-05-14T05:35:44.108Z,68.9
2019-05-14T05:36:40.525Z,68.84
2019-05-14T05:37:40.958Z,68.35
2019-05-14T05:38:41.693Z,68.26
2019-05-14T05:39:41.098Z,68.26
2019-05-14T05:40:41.546Z,68.16
2019-05-14T05:41:40.939Z,69.18
2019-05-14T05:42:41.107Z,69.09
2019-05-14T05:43:41.633Z,69.56
2019-05-14T05:44:41.681Z,68.99
2019-05-14T05:45:40.543Z,69.5
2019-05-14T05:46:43.171Z,68.74
2019-05-14T05:47:54.331Z,67.78
2019-05-14T05:48:41.454Z,66.86
2019-05-14T05:49:40.667Z,66.38
2019-05-14T05:50:41.360Z,66.38
2019-05-14T05:51:41.618Z,65.74
2019-05-14T05:52:41.194Z,65.45
2019-05-14T05:53:41.615Z,65.45
2019-05-14T05:54:40.956Z,64.88
2019-05-14T05:55:41.748Z,64.92
2019-05-14T05:56:41.233Z,64.43
2019-05-14T05:57:41.563Z,63.22
2019-05-14T05:58:41.989Z,62.68
2019-05-14T05:59:41.650Z,61.34
2019-05-14T06:00:42.080Z,60.41
2019-05-14T06:01:50.168Z,59.74
2019-05-14T06:02:42.178Z,59.19
2019-05-14T06:03:41.591Z,58.33
2019-05-14T06:04:41.588Z,56.89
2019-05-14T06:05:41.473Z,56.7
2019-05-14T06:06:41.360Z,57.28
2019-05-14T06:07:41.756Z,57.46
2019-05-14T06:08:41.252Z,56.22
2019-05-14T06:09:40.621Z,56.7
2019-05-14T06:10:42.268Z,57.82
2019-05-14T06:11:40.630Z,57.82
2019-05-14T06:12:41.372Z,57.98
2019-05-14T06:13:41.406Z,58.75
2019-05-14T06:14:40.774Z,59.3
2019-05-14T06:15:52.199Z,60.06
2019-05-14T06:16:40.928Z,60.16
2019-05-14T06:17:41.753Z,61.18
2019-05-14T06:18:41.802Z,62.33
2019-05-14T06:19:40.676Z,65.36
2019-05-14T06:20:41.254Z,68.33
2019-05-14T06:21:42.059Z,71.16
2019-05-14T06:22:40.962Z,69.82
2019-05-14T06:23:41.138Z,70.75
2019-05-14T06:24:41.300Z,72.85
2019-05-14T06:25:42.254Z,70.71
2019-05-14T06:26:40.896Z,70.39
2019-05-14T06:27:40.491Z,71.25
2019-05-14T06:28:43.114Z,72.17
2019-05-14T06:29:40.694Z,73.32
2019-05-14T06:30:41.870Z,74.84
2019-05-14T06:31:41.188Z,77.42
2019-05-14T06:32:41.122Z,79.57
2019-05-14T06:33:41.679Z,80.53
2019-05-14T06:34:40.507Z,82.63
2019-05-14T06:35:41.890Z,85.68
2019-05-14T06:36:41.952Z,85.68
2019-05-14T06:37:41.028Z,85.3
2019-05-14T06:38:41.347Z,84.25
2019-05-14T06:39:41.409Z,84.25
2019-05-14T06:40:41.834Z,83.11
2019-05-14T06:41:44.967Z,81.67
2019-05-14T06:42:41.716Z,81.86
2019-05-14T06:43:41.566Z,82.91
2019-05-14T06:44:41.013Z,82.15
2019-05-14T06:45:41.386Z,81.58
2019-05-14T06:46:41.445Z,82.15
2019-05-14T06:47:40.733Z,81.63
2019-05-14T06:48:41.870Z,81.67
2019-05-14T06:49:41.039Z,80.72
2019-05-14T06:50:41.501Z,80.53
2019-05-14T06:51:41.809Z,80.24
2019-05-14T06:52:41.234Z,79.96
2019-05-14T06:53:41.504Z,79.99
2019-05-14T06:54:41.197Z,80.15
2019-05-14T06:55:41.514Z,79.57
2019-05-14T06:56:41.041Z,79.57
2019-05-14T06:57:41.684Z,79.23
2019-05-14T06:58:41.264Z,78.66
2019-05-14T06:59:40.521Z,78.66
2019-05-14T07:00:41.820Z,79.1
2019-05-14T07:01:40.879Z,78.91
2019-05-14T07:02:45.393Z,79.19
2019-05-14T07:03:40.730Z,78.52
2019-05-14T07:04:39.539Z,79.43
2019-05-14T07:05:41.487Z,79.28
2019-05-14T07:06:41.423Z,77.61
2019-05-14T07:07:42.759Z,76.79
2019-05-14T07:08:41.551Z,75.74
2019-05-14T07:09:40.911Z,75.3
2019-05-14T07:10:41.790Z,73.43
2019-05-14T07:11:41.313Z,71.51
2019-05-14T07:12:41.193Z,70.5
2019-05-14T07:13:41.060Z,69.15
2019-05-14T07:14:41.159Z,69.15
2019-05-14T07:15:41.104Z,70.21
2019-05-14T07:16:41.297Z,70.3
2019-05-14T07:17:40.900Z,70.11
2019-05-14T07:18:53.549Z,69.25
2019-05-14T07:19:40.976Z,68.33
2019-05-14T07:20:41.472Z,66.7
2019-05-14T07:21:40.140Z,65.97
2019-05-14T07:22:41.277Z,65.23
2019-05-14T07:23:40.933Z,64.31
2019-05-14T07:24:42.653Z,61.75
2019-05-14T07:25:41.638Z,58.26
2019-05-14T07:26:41.296Z,56.85
2019-05-14T07:27:41.517Z,54.57
2019-05-14T07:28:44.568Z,54.67
2019-05-14T07:29:41.258Z,54.28
2019-05-14T07:30:41.921Z,54.77
2019-05-14T07:31:40.966Z,54.86
2019-05-14T07:32:41.777Z,54.67
2019-05-14T07:33:41.333Z,52.48
2019-05-14T07:34:41.151Z,51.17
2019-05-14T07:35:40.673Z,50.4
2019-05-14T07:36:41.142Z,50.3
2019-05-14T07:37:41.900Z,50.68
2019-05-14T07:38:41.442Z,50.37
2019-05-14T07:39:41.033Z,50.1
2019-05-14T07:40:41.388Z,49.63
2019-05-14T07:41:41.335Z,49.72
2019-05-14T07:42:40.846Z,50.56
2019-05-14T07:43:41.659Z,50.85
2019-05-14T07:44:41.376Z,50.46
2019-05-14T07:45:41.045Z,51.79
2019-05-14T07:46:41.299Z,51.59
2019-05-14T07:47:41.308Z,51.21
2019-05-14T07:48:41.537Z,50.34
2019-05-14T07:49:41.030Z,49.87
2019-05-14T07:50:42.042Z,49.93
2019-05-14T07:51:41.102Z,50.61
2019-05-14T07:52:49.696Z,51.16
2019-05-14T07:53:44.577Z,51.64
2019-05-14T07:54:41.273Z,52.22
2019-05-14T07:55:40.986Z,52.12
2019-05-14T07:56:40.921Z,51.93
2019-05-14T07:57:41.613Z,52.4
2019-05-14T07:58:41.162Z,52.09
2019-05-14T07:59:40.590Z,52.57
2019-05-14T08:00:40.143Z,53.05
2019-05-14T08:01:41.165Z,53.5
2019-05-14T08:02:40.492Z,53.38
2019-05-14T08:03:40.770Z,53
2019-05-14T08:04:39.703Z,53.58
2019-05-14T08:05:41.291Z,54.46
2019-05-14T08:06:41.716Z,53.96
2019-05-14T08:07:41.151Z,54.15
2019-05-14T08:08:41.093Z,54.91
2019-05-14T08:09:41.289Z,55.46
2019-05-14T08:10:41.550Z,56.49
2019-05-14T08:11:41.176Z,56.84
2019-05-14T08:12:41.466Z,57.32
2019-05-14T08:13:42.643Z,58.15
2019-05-14T08:15:10.748Z,57.1
2019-05-14T08:15:41.150Z,57.29
2019-05-14T08:16:40.630Z,58.15
2019-05-14T08:17:41.181Z,58.54
2019-05-14T08:18:41.874Z,58.92
2019-05-14T08:19:41.086Z,59.2
2019-05-14T08:20:40.439Z,58.7
2019-05-14T08:21:41.250Z,59.08
2019-05-14T08:22:40.789Z,59.08
2019-05-14T08:23:41.519Z,58.73
2019-05-14T08:24:40.669Z,59.11
2019-05-14T08:25:41.328Z,58.63
2019-05-14T08:26:42.868Z,59.11
2019-05-14T08:27:41.194Z,57.58
2019-05-14T08:28:40.701Z,57.48
2019-05-14T08:29:42.185Z,57.65
2019-05-14T08:30:41.221Z,57.93
2019-05-14T08:31:40.786Z,58.12
2019-05-14T08:32:41.379Z,57.75
2019-05-14T08:33:39.641Z,57.65
2019-05-14T08:34:41.254Z,57.26
2019-05-14T08:35:39.477Z,57.55
2019-05-14T08:36:40.438Z,57.36
2019-05-14T08:37:41.188Z,57.93
2019-05-14T08:38:40.763Z,57.75
2019-05-14T08:39:41.577Z,56.5
2019-05-14T08:40:40.677Z,56.4
2019-05-14T08:41:40.847Z,56.21
2019-05-14T08:42:40.779Z,56.24
2019-05-14T08:43:42.048Z,55.19
2019-05-14T08:44:41.269Z,54.8
2019-05-14T08:45:41.296Z,54.8
2019-05-14T08:46:41.194Z,53.94
2019-05-14T08:47:41.361Z,52.99
2019-05-14T08:48:41.087Z,52.51
2019-05-14T08:49:50.396Z,52.42
2019-05-14T08:50:41.150Z,52.42
2019-05-14T08:51:41.284Z,52.89
2019-05-14T08:52:41.543Z,52.8
2019-05-14T08:53:41.084Z,53.18
2019-05-14T08:54:41.433Z,52.77
2019-05-14T08:55:40.636Z,52.96
2019-05-14T08:58:40.989Z,54.11
2019-05-14T08:59:41.926Z,53.82
2019-05-14T09:00:41.102Z,53.99
2019-05-14T09:01:57.154Z,53.99
2019-05-14T09:02:39.230Z,55.01
2019-05-14T09:03:41.570Z,55.2
2019-05-14T09:04:45.171Z,55.52
2019-05-14T09:05:41.014Z,55.58
2019-05-14T09:06:40.924Z,55.8
2019-05-14T09:07:40.895Z,55.71
2019-05-14T09:08:41.297Z,55.23
2019-05-14T09:09:40.711Z,53.99
2019-05-14T09:10:40.182Z,54.37
2019-05-14T09:11:50.233Z,54.78
2019-05-14T09:12:41.140Z,53.92
2019-05-14T09:13:40.846Z,53.63
2019-05-14T09:14:41.134Z,53.16
2019-05-14T09:15:40.941Z,51.81
2019-05-14T09:16:47.520Z,50.38
2019-05-14T09:17:41.342Z,50.29
2019-05-14T09:18:41.011Z,50.48
2019-05-14T09:19:57.542Z,50.48
2019-05-14T09:20:40.598Z,50.48
2019-05-14T09:21:42.089Z,50.57
2019-05-14T09:22:39.716Z,50.95
2019-05-14T09:23:41.445Z,50.67
2019-05-14T09:24:41.056Z,50.09
2019-05-14T09:25:53.175Z,50.02
2019-05-14T09:26:39.147Z,50
2019-05-14T09:27:41.296Z,50.21
2019-05-14T09:28:41.538Z,50.21
2019-05-14T09:29:41.821Z,49.84
2019-05-14T09:30:40.617Z,49.35
2019-05-14T09:31:41.435Z,49.43
2019-05-14T09:32:41.308Z,49.14
2019-05-14T09:33:41.261Z,48.3
2019-05-14T09:34:39.275Z,47.63
2019-05-14T09:35:41.118Z,47.25
2019-05-14T09:36:39.489Z,47.25
2019-05-14T09:37:39.475Z,46.1
2019-05-14T09:38:44.276Z,46.1
2019-05-14T09:39:40.956Z,46.22
2019-05-14T09:40:39.616Z,45.26
2019-05-14T09:41:41.062Z,44.59
2019-05-14T09:42:41.569Z,44.59
2019-05-14T09:43:39.179Z,45.26
2019-05-14T09:44:41.097Z,44.5
2019-05-14T09:45:38.854Z,44.4
2019-05-14T09:46:40.883Z,44.79
2019-05-14T09:47:41.090Z,44.98
2019-05-14T09:48:40.507Z,45.24
2019-05-14T09:49:41.163Z,45.36
2019-05-14T09:50:40.827Z,45.53
2019-05-14T09:51:40.733Z,44.69
2019-05-14T09:52:41.434Z,44.21
2019-05-14T09:53:40.651Z,44.31
2019-05-14T09:54:40.200Z,44.02
2019-05-14T09:55:41.174Z,44.21
2019-05-14T09:56:39.504Z,44.33
2019-05-14T09:57:41.130Z,44.13
2019-05-14T09:58:41.055Z,43.76
2019-05-14T09:59:40.778Z,43.27
2019-05-14T10:00:41.320Z,43.66
2019-05-14T10:01:40.663Z,44.13
2019-05-14T10:02:41.541Z,45.09
2019-05-14T10:03:41.318Z,45.76
2019-05-14T10:04:41.460Z,44.71
2019-05-14T10:05:38.490Z,44.81
2019-05-14T10:06:39.392Z,45.26
2019-05-14T10:07:41.498Z,44.88
2019-05-14T10:08:38.993Z,45.17
2019-05-14T10:09:41.227Z,45.55
2019-05-14T10:10:39.845Z,44.71
2019-05-14T10:11:40.685Z,43.95
2019-05-14T10:12:56.964Z,43.66
2019-05-14T10:13:39.223Z,43.3
2019-05-14T10:14:39.233Z,43.1
2019-05-14T10:15:39.034Z,43.39
2019-05-14T10:16:40.772Z,43.39
2019-05-14T10:17:41.545Z,43.39
2019-05-14T10:18:40.482Z,43.68
2019-05-14T10:19:41.629Z,43.77
2019-05-14T10:20:49.297Z,43.66
2019-05-14T10:21:40.890Z,43.85
2019-05-14T10:22:39.679Z,44.31
2019-05-14T10:23:41.245Z,45.07
2019-05-14T10:24:40.734Z,45.07
2019-05-14T10:25:42.707Z,44.98
2019-05-14T10:26:39.401Z,45.26
2019-05-14T10:27:38.391Z,45.05
2019-05-14T10:28:40.188Z,45.53
2019-05-14T10:29:39.314Z,44.59
2019-05-14T10:30:38.378Z,44.4
2019-05-14T10:31:39.685Z,43.92
2019-05-14T10:32:41.216Z,44.69
2019-05-14T10:33:38.367Z,44.88
2019-05-14T10:34:38.359Z,44.79
2019-05-14T10:35:39.080Z,44.98
2019-05-14T10:36:38.355Z,44.21
2019-05-14T10:37:39.994Z,43.66
2019-05-14T10:38:41.082Z,43.08
2019-05-14T10:39:41.458Z,43.18
2019-05-14T10:40:40.774Z,42.8
2019-05-14T10:41:40.962Z,42.9
2019-05-14T10:42:40.262Z,43.18
2019-05-14T10:43:39.118Z,44.04
2019-05-14T10:44:41.034Z,44.69
2019-05-14T10:45:40.790Z,45.17
2019-05-14T10:46:40.820Z,45.94
2019-05-14T10:47:41.143Z,46.31
2019-05-14T10:48:39.514Z,46.61
2019-05-14T10:49:40.987Z,46.98
2019-05-14T10:51:03.068Z,46.3
2019-05-14T10:51:38.849Z,46.3
2019-05-14T10:52:39.476Z,46.2
2019-05-14T10:53:38.276Z,44.88
2019-05-14T10:54:38.906Z,44.79
2019-05-14T10:55:38.722Z,45.17
2019-05-14T10:56:38.256Z,45.55
2019-05-14T10:57:38.259Z,44.98
2019-05-14T10:58:38.246Z,45.84
2019-05-14T10:59:38.238Z,46.12
2019-05-14T11:00:41.795Z,46.41
2019-05-14T11:01:39.009Z,47.44
2019-05-14T11:02:41.057Z,47.34
2019-05-14T11:03:38.729Z,47.25
2019-05-14T11:04:38.915Z,47.34
2019-05-14T11:05:41.468Z,46.58
2019-05-14T11:06:41.099Z,45.91
2019-05-14T11:07:41.673Z,46.2
2019-05-14T11:08:41.008Z,46.77
2019-05-14T11:09:40.420Z,46.2
2019-05-14T11:10:42.128Z,46.58
2019-05-14T11:11:40.608Z,46.39
2019-05-14T11:12:39.439Z,46.58
2019-05-14T11:13:39.361Z,46.77
2019-05-14T11:14:40.731Z,46.3
2019-05-14T11:15:39.429Z,46.87
2019-05-14T11:16:41.728Z,46.58
2019-05-14T11:17:40.633Z,46.67
2019-05-14T11:18:39.799Z,47.06
2019-05-14T11:19:38.927Z,47.25
2019-05-14T11:20:42.021Z,47.06
2019-05-14T11:21:39.133Z,47.34
2019-05-14T11:22:38.135Z,47.53
2019-05-14T11:23:40.995Z,48.21
2019-05-14T11:24:40.854Z,48.21
2019-05-14T11:25:40.674Z,49.04
2019-05-14T11:26:39.101Z,48.85
2019-05-14T11:27:38.780Z,49.04
2019-05-14T11:28:39.423Z,49.14
2019-05-14T11:29:40.857Z,49.33
2019-05-14T11:30:39.188Z,49.14
2019-05-14T11:31:39.071Z,48.75
2019-05-14T11:32:40.847Z,49.04
2019-05-14T11:33:38.813Z,48.75
2019-05-14T11:34:38.953Z,48.95
2019-05-14T11:35:39.392Z,47.82
2019-05-14T11:36:38.821Z,47.06
2019-05-14T11:37:41.066Z,47.16
2019-05-14T11:38:40.042Z,47.16
2019-05-14T11:39:40.371Z,46.96
2019-05-14T11:40:40.981Z,46.58
2019-05-14T11:41:38.847Z,46.2
2019-05-14T11:42:38.772Z,45.45
2019-05-14T11:43:39.647Z,45.45
2019-05-14T11:44:40.525Z,44.98
2019-05-14T11:45:39.207Z,44.31
2019-05-14T11:46:57.802Z,43.63
2019-05-14T11:47:40.301Z,43.83
2019-05-14T11:48:39.223Z,44.12
2019-05-14T11:49:37.980Z,43.83
2019-05-14T11:50:37.956Z,43.92
2019-05-14T11:52:07.539Z,44.12
2019-05-14T11:52:38.789Z,44.48
2019-05-14T11:53:40.932Z,44.76
2019-05-14T11:54:43.251Z,44.86
2019-05-14T11:55:38.756Z,44.79
2019-05-14T11:56:41.741Z,44.79
2019-05-14T11:57:37.927Z,44.59
2019-05-14T11:58:37.925Z,44.5
2019-05-14T11:59:39.054Z,43.92
2019-05-14T12:00:41.046Z,44.02
2019-05-14T12:01:39.204Z,44.59
2019-05-14T12:02:38.577Z,44.5
2019-05-14T12:03:39.377Z,44.4
2019-05-14T12:04:39.106Z,43.63
2019-05-14T12:05:38.815Z,43.16
2019-05-14T12:06:38.978Z,42.99
2019-05-14T12:07:38.801Z,42.7
2019-05-14T12:08:41.691Z,42.6
2019-05-14T12:09:39.046Z,42.32
2019-05-14T12:10:38.653Z,41.65
2019-05-14T12:11:38.443Z,41.46
2019-05-14T12:12:37.842Z,41.84
2019-05-14T12:13:39.392Z,41.55
2019-05-14T12:14:40.379Z,41.84
2019-05-14T12:15:38.796Z,41.07
2019-05-14T12:16:40.079Z,41.36
2019-05-14T12:17:39.286Z,40.78
2019-05-14T12:18:41.625Z,40.14
2019-05-14T12:19:38.995Z,39.92
2019-05-14T12:20:39.519Z,40.41
2019-05-14T12:21:39.669Z,39.92
2019-05-14T12:22:39.232Z,39.92
2019-05-14T12:23:39.299Z,39.92
2019-05-14T12:24:38.691Z,40.02
2019-05-14T12:25:37.787Z,40.78
2019-05-14T12:26:38.495Z,40.69
2019-05-14T12:27:38.700Z,40.69
2019-05-14T12:28:38.607Z,40.78
2019-05-14T12:29:39.721Z,40.69
2019-05-14T12:30:39.442Z,40.88
2019-05-14T12:31:38.554Z,40.5
2019-05-14T12:32:39.411Z,40.88
2019-05-14T12:33:39.517Z,40.5
2019-05-14T12:34:38.661Z,39.92
2019-05-14T12:35:40.181Z,40.02
2019-05-14T12:36:38.863Z,39.83
2019-05-14T12:37:38.702Z,40.31
2019-05-14T12:38:38.201Z,40.12
2019-05-14T12:39:37.719Z,40.02
2019-05-14T12:40:38.209Z,40.21
2019-05-14T12:41:38.182Z,40.12
2019-05-14T12:42:39.087Z,40.21
2019-05-14T12:43:39.603Z,38.96
2019-05-14T12:44:40.809Z,39.73
2019-05-14T12:45:39.243Z,39.64
2019-05-14T12:46:37.689Z,40.02
2019-05-14T12:47:38.359Z,39.73
2019-05-14T12:48:38.859Z,40.12
2019-05-14T12:49:38.675Z,38.87
2019-05-14T12:50:39.144Z,38.39
2019-05-14T12:51:44.020Z,37.82
2019-05-14T12:52:38.828Z,38.56
2019-05-14T12:53:39.340Z,38.66
2019-05-14T12:54:38.658Z,39.23
2019-05-14T12:55:40.001Z,38.85
2019-05-14T12:56:38.924Z,39.52
2019-05-14T12:57:39.263Z,39.62